Time;durP1;ratioP1;P1;durP2;ratioP2;P2;SDS_P1;SDS_P2;PMS_P1;PMS_P2;Temp;Humidity;BMP_temperature;BMP_pressure;BME280_temperature;BME280_humidity;BME280_pressure;Samples;Min_cycle;Max_cycle;Signal;HPM_P1;HPM_P2
2021/12/03 00:01:28;;;;;;;6.07;4.72;;;-0.50;99.90;;;;;;4843606;29;20042;-64
2021/12/03 00:03:55;;;;;;;7.22;5.25;;;-0.50;99.90;;;;;;4843805;29;20049;-64
2021/12/03 00:06:22;;;;;;;6.80;4.53;;;-0.60;99.90;;;;;;4838452;29;20046;-64
2021/12/03 00:08:49;;;;;;;5.80;4.70;;;-0.60;99.90;;;;;;4842795;29;20097;-63
2021/12/03 00:11:17;;;;;;;7.00;5.28;;;-0.60;99.90;;;;;;4843229;29;20058;-64
2021/12/03 00:13:44;;;;;;;6.00;5.18;;;-0.70;99.90;;;;;;4843767;29;20122;-63
2021/12/03 00:16:12;;;;;;;8.13;4.68;;;-0.70;99.90;;;;;;4844586;29;20057;-62
2021/12/03 00:18:39;;;;;;;7.25;4.97;;;-0.80;99.90;;;;;;4846340;29;20080;-63
2021/12/03 00:21:10;;;;;;;6.57;4.63;;;-0.80;99.90;;;;;;4847412;29;20888;-64
2021/12/03 00:23:37;;;;;;;6.32;4.40;;;-0.80;99.90;;;;;;4846653;29;20049;-63
2021/12/03 00:26:06;;;;;;;6.43;5.20;;;-0.90;99.90;;;;;;4842073;29;20118;-63
2021/12/03 00:28:33;;;;;;;5.63;4.70;;;-0.90;99.90;;;;;;4846770;29;20702;-63
2021/12/03 00:31:01;;;;;;;7.40;4.55;;;-0.90;99.90;;;;;;4847594;29;20693;-63
2021/12/03 00:33:30;;;;;;;7.30;4.93;;;-1.00;99.90;;;;;;4847167;29;20501;-64
2021/12/03 00:36:03;;;;;;;5.15;4.47;;;-1.00;99.90;;;;;;4841976;29;20094;-64
2021/12/03 00:38:35;;;;;;;5.45;4.55;;;-1.00;99.90;;;;;;4847034;29;20045;-63
2021/12/03 00:41:05;;;;;;;4.88;3.88;;;-1.00;99.90;;;;;;4840935;29;20049;-64
2021/12/03 00:43:33;;;;;;;8.88;4.88;;;-1.10;99.90;;;;;;4847145;29;20739;-63
2021/12/03 00:46:05;;;;;;;5.25;4.00;;;-1.10;99.90;;;;;;4846580;29;20049;-64
2021/12/03 00:48:33;;;;;;;6.55;4.55;;;-1.10;99.90;;;;;;4846747;29;20079;-63
2021/12/03 00:51:00;;;;;;;7.40;4.55;;;-1.10;99.90;;;;;;4847278;29;20136;-63
2021/12/03 00:53:27;;;;;;;5.65;4.53;;;-1.10;99.90;;;;;;4846600;29;20057;-63
2021/12/03 00:55:54;;;;;;;8.38;5.05;;;-1.10;99.90;;;;;;4846404;29;20578;-64
2021/12/03 00:58:20;;;;;;;6.25;4.45;;;-1.10;99.90;;;;;;4842446;29;20049;-63
2021/12/03 01:00:48;;;;;;;4.95;4.38;;;-1.10;99.90;;;;;;4846682;29;20101;-63
2021/12/03 01:03:16;;;;;;;6.22;5.13;;;-1.10;99.90;;;;;;4846517;29;20104;-63
2021/12/03 01:05:42;;;;;;;5.82;4.70;;;-1.10;99.90;;;;;;4846309;29;20048;-64
2021/12/03 01:08:09;;;;;;;7.68;4.88;;;-1.10;99.90;;;;;;4841258;29;20056;-63
2021/12/03 01:10:36;;;;;;;5.93;4.68;;;-1.10;99.90;;;;;;4846342;29;20124;-64
2021/12/03 01:13:04;;;;;;;6.57;4.43;;;-1.10;99.90;;;;;;4846663;29;20791;-64
2021/12/03 01:15:34;;;;;;;4.85;4.10;;;-1.10;99.90;;;;;;4843657;29;20049;-64
2021/12/03 01:18:03;;;;;;;6.38;4.80;;;-1.10;99.90;;;;;;4846112;29;20138;-64
2021/12/03 01:20:30;;;;;;;7.40;4.65;;;-1.10;99.90;;;;;;4860694;29;20650;-63
2021/12/03 01:22:59;;;;;;;7.60;5.25;;;-1.10;99.90;;;;;;4846204;29;20054;-63
2021/12/03 01:25:26;;;;;;;7.45;5.18;;;-1.00;99.90;;;;;;4840824;29;20053;-64
2021/12/03 01:27:53;;;;;;;7.78;5.90;;;-1.00;99.90;;;;;;4846339;29;20050;-63
2021/12/03 01:30:22;;;;;;;8.00;5.15;;;-1.00;99.90;;;;;;4845780;29;20129;-63
2021/12/03 01:32:55;;;;;;;7.68;5.20;;;-1.00;99.90;;;;;;4846444;29;20152;-64
2021/12/03 01:35:22;;;;;;;9.20;5.45;;;-0.90;99.90;;;;;;4841240;29;20876;-63
2021/12/03 01:37:49;;;;;;;6.53;5.05;;;-0.90;99.90;;;;;;4846323;29;20140;-63
2021/12/03 01:40:20;;;;;;;8.60;5.82;;;-0.90;99.90;;;;;;4855903;29;20561;-64
2021/12/03 01:42:47;;;;;;;9.10;5.85;;;-0.90;99.90;;;;;;4844908;29;20128;-63
2021/12/03 01:45:17;;;;;;;9.95;5.63;;;-0.90;99.90;;;;;;4846023;29;20061;-64
2021/12/03 01:47:46;;;;;;;7.07;4.97;;;-0.90;99.90;;;;;;4845393;29;20263;-64
2021/12/03 01:50:14;;;;;;;8.13;5.32;;;-0.90;99.90;;;;;;4845799;29;20098;-64
2021/12/03 01:52:41;;;;;;;9.63;5.05;;;-0.90;99.90;;;;;;4845368;29;20061;-63
2021/12/03 01:55:11;;;;;;;9.98;5.15;;;-0.80;99.90;;;;;;4845584;29;20073;-64
2021/12/03 01:57:38;;;;;;;8.52;5.47;;;-0.80;99.90;;;;;;4842047;29;20389;-64
2021/12/03 02:00:11;;;;;;;6.95;5.18;;;-0.80;99.90;;;;;;4845359;29;20524;-63
2021/12/03 02:02:38;;;;;;;5.60;4.43;;;-0.80;99.90;;;;;;4845874;29;20053;-63
2021/12/03 02:05:06;;;;;;;8.52;5.63;;;-0.80;99.90;;;;;;4845280;29;20102;-63
2021/12/03 02:07:32;;;;;;;6.95;5.32;;;-0.80;99.90;;;;;;4840096;29;20064;-64
2021/12/03 02:09:59;;;;;;;6.50;5.15;;;-0.80;99.90;;;;;;4845176;29;20052;-64
2021/12/03 02:12:26;;;;;;;8.57;5.10;;;-0.70;99.90;;;;;;4859384;29;20053;-63
2021/12/03 02:14:53;;;;;;;6.65;4.95;;;-0.70;99.90;;;;;;4845534;29;20054;-63
2021/12/03 02:17:20;;;;;;;7.30;4.43;;;-0.70;99.90;;;;;;4842191;29;20518;-64
2021/12/03 02:19:46;;;;;;;;;;;-0.70;99.90;;;;;;4846203;29;20045;-63
2021/12/03 02:22:13;;;;;;;6.47;5.15;;;-0.70;99.90;;;;;;4846117;29;19955;-63
2021/12/03 02:24:40;;;;;;;9.10;5.78;;;-0.70;99.90;;;;;;4844380;29;20184;-62
2021/12/03 02:27:07;;;;;;;;;;;-0.70;99.90;;;;;;4842888;29;20069;-62
2021/12/03 02:29:34;;;;;;;6.57;4.60;;;-0.70;99.90;;;;;;4845605;29;20039;-62
2021/12/03 02:32:01;;;;;;;;;;;-0.70;99.90;;;;;;4845684;29;20065;-63
2021/12/03 02:34:28;;;;;;;5.88;4.32;;;-0.70;99.90;;;;;;4845661;29;19931;-63
2021/12/03 02:36:55;;;;;;;9.07;5.65;;;-0.70;99.90;;;;;;4859774;29;20750;-63
2021/12/03 02:39:22;;;;;;;7.88;4.53;;;-0.70;99.90;;;;;;4858911;29;20049;-63
2021/12/03 02:41:49;;;;;;;7.28;4.88;;;-0.60;99.90;;;;;;4839403;29;20045;-64
2021/12/03 02:44:16;;;;;;;;;;;-0.70;99.90;;;;;;4845447;29;20049;-65
2021/12/03 02:46:42;;;;;;;5.40;4.43;;;-0.70;99.90;;;;;;4844240;29;19932;-65
2021/12/03 02:49:13;;;;;;;7.15;5.53;;;-0.60;99.90;;;;;;4843016;29;20049;-64
2021/12/03 02:51:42;;;;;;;6.32;4.85;;;-0.60;99.90;;;;;;4844407;29;20045;-64
2021/12/03 02:54:09;;;;;;;8.60;5.15;;;-0.60;99.90;;;;;;4837141;29;20132;-64
2021/12/03 02:56:36;;;;;;;6.00;4.82;;;-0.60;99.90;;;;;;4844968;29;20045;-63
2021/12/03 02:59:04;;;;;;;9.68;4.65;;;-0.60;99.90;;;;;;4844089;29;20061;-64
2021/12/03 03:01:31;;;;;;;7.60;5.20;;;-0.50;99.90;;;;;;4859256;29;20058;-64
2021/12/03 03:03:58;;;;;;;9.15;5.20;;;-0.60;99.90;;;;;;4844768;29;20457;-63
2021/12/03 03:06:26;;;;;;;6.18;4.50;;;-0.60;99.90;;;;;;4844176;29;20080;-64
2021/12/03 03:08:53;;;;;;;6.43;3.97;;;-0.60;99.90;;;;;;4844552;29;20129;-64
2021/12/03 03:11:22;;;;;;;5.97;4.45;;;-0.60;99.90;;;;;;4844378;29;20045;-64
2021/12/03 03:13:49;;;;;;;7.22;5.10;;;-0.60;99.90;;;;;;4844336;29;20057;-63
2021/12/03 03:16:17;;;;;;;5.90;4.57;;;-0.60;99.90;;;;;;4843806;29;20105;-64
2021/12/03 03:18:45;;;;;;;8.02;5.20;;;-0.60;99.90;;;;;;4844266;29;20579;-64
2021/12/03 03:21:13;;;;;;;6.38;3.67;;;-0.60;99.90;;;;;;4844055;29;20050;-64
2021/12/03 03:23:40;;;;;;;4.82;4.00;;;-0.60;99.90;;;;;;4843801;29;20045;-64
2021/12/03 03:26:07;;;;;;;9.40;4.60;;;-0.60;99.90;;;;;;4842910;29;20060;-63
2021/12/03 03:28:35;;;;;;;6.97;4.32;;;-0.60;99.90;;;;;;4843244;29;20050;-63
2021/12/03 03:31:02;;;;;;;4.63;4.00;;;-0.60;99.90;;;;;;4844440;29;20084;-64
2021/12/03 03:33:30;;;;;;;7.55;4.93;;;-0.60;99.90;;;;;;4844323;29;20041;-63
2021/12/03 03:35:57;;;;;;;6.43;4.00;;;-0.60;99.90;;;;;;4844168;29;20045;-63
2021/12/03 03:38:25;;;;;;;11.60;4.72;;;-0.70;99.90;;;;;;4843776;29;20064;-63
2021/12/03 03:40:54;;;;;;;9.85;4.47;;;-0.70;99.90;;;;;;4842458;29;20445;-64
2021/12/03 03:43:21;;;;;;;13.73;7.25;;;-0.60;99.90;;;;;;4844053;29;20046;-63
2021/12/03 03:45:50;;;;;;;7.00;4.68;;;-0.60;99.90;;;;;;4843754;29;20129;-63
2021/12/03 03:48:16;;;;;;;8.70;5.82;;;-0.70;99.90;;;;;;4844030;29;20096;-64
2021/12/03 03:50:44;;;;;;;7.13;4.97;;;-0.70;99.90;;;;;;4843475;29;20939;-64
2021/12/03 03:53:11;;;;;;;8.25;5.20;;;-0.70;99.90;;;;;;4843739;29;20076;-63
2021/12/03 03:55:38;;;;;;;5.75;4.75;;;-0.70;99.90;;;;;;4843849;29;20069;-63
2021/12/03 03:58:04;;;;;;;;;;;-0.70;99.90;;;;;;4844092;29;20042;-63
2021/12/03 04:00:37;;;;;;;7.40;4.80;;;-0.70;99.90;;;;;;4843682;29;20554;-63
2021/12/03 04:03:04;;;;;;;6.80;5.05;;;-0.70;99.90;;;;;;4844381;29;20041;-67
2021/12/03 04:05:32;;;;;;;7.93;5.25;;;-0.70;99.90;;;;;;4842072;29;20056;-66
2021/12/03 04:07:59;;;;;;;8.32;5.10;;;-0.70;99.90;;;;;;4843663;29;20049;-66
2021/12/03 04:10:26;;;;;;;6.88;5.18;;;-0.70;99.90;;;;;;4843182;29;20325;-67
2021/12/03 04:12:54;;;;;;;5.82;4.55;;;-0.60;99.90;;;;;;4869932;29;20049;-67
2021/12/03 04:15:21;;;;;;;8.82;5.03;;;-0.70;99.90;;;;;;4861918;29;20876;-66
2021/12/03 04:17:48;;;;;;;6.60;4.47;;;-0.60;99.90;;;;;;4862145;29;20049;-67
2021/12/03 04:20:17;;;;;;;6.63;4.47;;;-0.60;99.90;;;;;;4862902;29;20117;-68
2021/12/03 04:22:44;;;;;;;6.75;4.35;;;-0.70;99.90;;;;;;4861902;29;20049;-67
2021/12/03 04:25:18;;;;;;;10.05;4.68;;;-0.70;99.90;;;;;;4863397;29;20117;-67
2021/12/03 04:27:45;;;;;;;5.75;4.10;;;-0.70;99.90;;;;;;4862531;29;20126;-67
2021/12/03 04:30:17;;;;;;;6.35;4.38;;;-0.70;99.90;;;;;;4862577;29;20048;-67
2021/12/03 04:32:44;;;;;;;7.22;4.63;;;-0.70;99.90;;;;;;4862677;29;20056;-67
2021/12/03 04:35:11;;;;;;;5.55;4.25;;;-0.80;99.90;;;;;;4861606;29;20057;-68
2021/12/03 04:37:38;;;;;;;10.02;4.97;;;-0.80;99.90;;;;;;4862341;29;20176;-69
2021/12/03 04:40:07;;;;;;;5.97;4.20;;;-0.80;99.90;;;;;;4862125;29;20053;-69
2021/12/03 04:42:34;;;;;;;6.10;4.40;;;-0.90;99.90;;;;;;4862867;29;20056;-68
2021/12/03 04:45:01;;;;;;;6.93;4.25;;;-0.90;99.90;;;;;;4862899;29;20045;-68
2021/12/03 04:47:27;;;;;;;;;;;-0.90;99.90;;;;;;4863846;29;20056;-68
2021/12/03 04:49:54;;;;;;;7.25;3.97;;;-0.90;99.90;;;;;;4862440;29;19935;-66
2021/12/03 04:52:21;;;;;;;;;;;-1.00;99.90;;;;;;4862218;29;20057;-67
2021/12/03 04:54:48;;;;;;;6.03;4.72;;;-1.00;99.90;;;;;;4860103;29;19932;-66
2021/12/03 04:57:16;;;;;;;9.77;4.35;;;-1.00;99.90;;;;;;4861559;29;20057;-68
2021/12/03 04:59:43;;;;;;;13.27;5.90;;;-1.10;99.90;;;;;;4861193;29;20041;-66
2021/12/03 05:02:10;;;;;;;7.18;4.45;;;-1.10;99.90;;;;;;4862872;29;20037;-67
2021/12/03 05:04:38;;;;;;;6.90;5.00;;;-1.10;99.90;;;;;;4864650;29;20085;-68
2021/12/03 05:09:36;;;;;;;8.38;4.78;;;-1.20;99.90;;;;;;4864319;29;20216;-68
2021/12/03 05:12:04;;;;;;;6.15;5.00;;;-1.20;99.90;;;;;;4865165;29;20049;-68
2021/12/03 05:14:31;;;;;;;5.30;3.85;;;-1.20;99.90;;;;;;4864930;29;20044;-68
2021/12/03 05:16:58;;;;;;;6.25;4.68;;;-1.20;99.90;;;;;;4864441;29;20037;-67
2021/12/03 05:19:24;;;;;;;;;;;-1.20;99.90;;;;;;4863087;29;20064;-63
2021/12/03 05:21:51;;;;;;;9.63;5.28;;;-1.20;99.90;;;;;;4864864;29;20707;-63
2021/12/03 05:24:18;;;;;;;7.63;4.70;;;-1.10;99.90;;;;;;4864642;29;20049;-63
2021/12/03 05:26:45;;;;;;;10.50;5.47;;;-1.10;99.90;;;;;;4864304;29;20041;-63
2021/12/03 05:29:14;;;;;;;7.47;5.13;;;-1.10;99.90;;;;;;4864206;29;20056;-63
2021/12/03 05:31:41;;;;;;;8.35;5.50;;;-1.00;99.90;;;;;;4864561;29;20440;-62
2021/12/03 05:34:26;;;;;;;11.10;5.30;;;-1.10;99.90;;;;;;4863997;29;20940;-63
2021/12/03 05:36:53;;;;;;;6.90;4.93;;;-1.10;99.90;;;;;;4862830;29;20052;-63
2021/12/03 05:39:20;;;;;;;6.18;4.30;;;-1.00;99.90;;;;;;4863769;29;20037;-62
2021/12/03 05:41:47;;;;;;;7.45;5.07;;;-1.00;99.90;;;;;;4863161;29;20196;-63
2021/12/03 05:44:14;;;;;;;;;;;-1.00;99.90;;;;;;4864915;29;20047;-63
2021/12/03 05:46:41;;;;;;;7.03;4.97;;;-1.00;99.90;;;;;;4863991;29;20477;-63
2021/12/03 05:49:08;;;;;;;9.52;4.97;;;-1.00;99.90;;;;;;4878146;29;20469;-63
2021/12/03 05:51:35;;;;;;;7.32;4.93;;;-1.00;99.90;;;;;;4863686;29;20068;-63
2021/12/03 05:54:02;;;;;;;6.38;5.05;;;-0.90;99.90;;;;;;4864668;29;20520;-63
2021/12/03 05:56:29;;;;;;;8.98;5.38;;;-0.90;99.90;;;;;;4863544;29;20120;-63
2021/12/03 05:58:59;;;;;;;9.27;5.30;;;-0.90;99.90;;;;;;4863446;29;20055;-62
2021/12/03 06:01:26;;;;;;;6.68;4.95;;;-0.90;99.90;;;;;;4864633;29;20049;-63
2021/12/03 06:03:54;;;;;;;7.00;5.22;;;-0.90;99.90;;;;;;4864057;29;20689;-63
2021/12/03 06:06:21;;;;;;;8.45;5.97;;;-0.90;99.90;;;;;;4864240;29;20875;-62
2021/12/03 06:08:48;;;;;;;7.80;5.47;;;-0.90;99.90;;;;;;4863530;29;20049;-63
2021/12/03 06:11:15;;;;;;;8.18;5.18;;;-0.90;99.90;;;;;;4863517;29;20618;-64
2021/12/03 06:13:42;;;;;;;9.60;5.70;;;-0.90;99.90;;;;;;4863618;29;20063;-63
2021/12/03 06:16:11;;;;;;;;;;;-0.90;99.90;;;;;;4862508;29;20053;-63
2021/12/03 06:18:38;;;;;;;8.40;5.78;;;-0.80;99.90;;;;;;4863437;29;19943;-63
2021/12/03 06:21:09;;;;;;;9.30;6.07;;;-0.90;99.90;;;;;;4863466;29;20073;-63
2021/12/03 06:23:36;;;;;;;9.75;5.97;;;-0.80;99.90;;;;;;4863792;29;20057;-63
2021/12/03 06:26:06;;;;;;;11.60;6.88;;;-0.90;99.90;;;;;;4863570;29;20053;-63
2021/12/03 06:28:34;;;;;;;10.70;6.70;;;-0.80;99.90;;;;;;4863509;29;20072;-63
2021/12/03 06:31:01;;;;;;;12.13;8.40;;;-0.80;99.90;;;;;;4863914;29;20523;-63
2021/12/03 06:33:28;;;;;;;9.93;7.15;;;-0.80;99.90;;;;;;4863021;29;20049;-63
2021/12/03 06:35:55;;;;;;;11.70;7.20;;;-0.80;99.90;;;;;;4863657;29;20649;-62
2021/12/03 06:38:22;;;;;;;11.43;7.28;;;-0.90;99.90;;;;;;4863031;29;20113;-63
2021/12/03 06:40:51;;;;;;;16.60;8.68;;;-0.80;99.90;;;;;;4863347;29;20845;-62
2021/12/03 06:43:18;;;;;;;11.90;7.32;;;-0.90;99.90;;;;;;4863393;29;20106;-63
2021/12/03 06:45:47;;;;;;;14.55;6.80;;;-0.90;99.90;;;;;;4862844;29;20051;-63
2021/12/03 06:48:14;;;;;;;11.77;7.40;;;-0.90;99.90;;;;;;4863091;29;20045;-63
2021/12/03 06:50:43;;;;;;;12.73;7.35;;;-0.90;99.90;;;;;;4863064;29;20471;-71
2021/12/03 06:53:13;;;;;;;9.25;6.40;;;-0.90;99.90;;;;;;4863321;29;20052;-59
2021/12/03 06:55:48;;;;;;;10.60;6.45;;;-1.00;99.90;;;;;;4862771;29;20436;-59
2021/12/03 06:58:17;;;;;;;9.15;6.18;;;-1.00;99.90;;;;;;4862699;29;20077;-59
2021/12/03 07:00:51;;;;;;;9.10;5.93;;;-1.00;99.90;;;;;;4863415;29;20056;-60
2021/12/03 07:03:18;;;;;;;12.65;5.82;;;-1.00;99.90;;;;;;4862839;29;20047;-59
2021/12/03 07:05:46;;;;;;;10.23;5.95;;;-1.10;99.90;;;;;;4862752;29;20088;-59
2021/12/03 07:08:13;;;;;;;9.23;5.82;;;-1.00;99.90;;;;;;4862721;29;20064;-59
2021/12/03 07:10:41;;;;;;;7.38;5.68;;;-1.00;99.90;;;;;;4862893;29;20049;-57
2021/12/03 07:13:08;;;;;;;9.02;5.75;;;-1.00;99.90;;;;;;4861833;29;20053;-61
2021/12/03 07:15:35;;;;;;;7.35;6.10;;;-1.10;99.90;;;;;;4862721;29;20563;-60
2021/12/03 07:18:03;;;;;;;10.23;5.22;;;-1.10;99.90;;;;;;4881118;29;20052;-60
2021/12/03 07:20:29;;;;;;;13.10;8.55;;;-1.00;99.90;;;;;;4860875;29;20041;-59
2021/12/03 07:22:57;;;;;;;19.77;10.68;;;-0.50;99.90;;;;;;4862900;29;20049;-60
2021/12/03 07:25:24;;;;;;;14.60;8.43;;;0.00;99.90;;;;;;4861903;29;20698;-59
2021/12/03 07:27:51;;;;;;;9.00;7.05;;;0.30;99.90;;;;;;4862441;29;20053;-60
2021/12/03 07:30:19;;;;;;;10.88;6.65;;;0.40;99.90;;;;;;4862927;29;20109;-60
2021/12/03 07:32:47;;;;;;;8.07;5.78;;;0.30;99.90;;;;;;4861939;29;20245;-60
2021/12/03 07:35:14;;;;;;;7.10;4.90;;;0.20;99.90;;;;;;4863194;29;20041;-60
2021/12/03 07:37:43;;;;;;;14.63;6.22;;;0.10;99.90;;;;;;4862946;29;20148;-60
2021/12/03 07:40:11;;;;;;;9.02;5.72;;;0.00;99.90;;;;;;4862474;29;20171;-61
2021/12/03 07:42:38;;;;;;;8.73;5.63;;;-0.10;99.90;;;;;;4862473;29;20041;-60
2021/12/03 07:45:08;;;;;;;8.77;5.85;;;-0.20;99.90;;;;;;4861977;29;20053;-59
2021/12/03 07:47:36;;;;;;;10.40;5.60;;;-0.30;99.90;;;;;;4862584;29;20569;-60
2021/12/03 07:50:07;;;;;;;6.60;4.93;;;-0.40;99.90;;;;;;4861766;29;20181;-60
2021/12/03 07:52:35;;;;;;;11.32;6.80;;;-0.60;99.90;;;;;;4862761;29;20052;-60
2021/12/03 07:55:03;;;;;;;8.40;5.38;;;-0.70;99.90;;;;;;4861950;29;20061;-60
2021/12/03 07:57:30;;;;;;;16.83;6.53;;;-0.70;99.90;;;;;;4862181;29;20037;-59
2021/12/03 07:59:57;;;;;;;13.50;7.80;;;-0.80;99.90;;;;;;4862731;29;20057;-58
2021/12/03 08:02:24;;;;;;;8.85;5.82;;;-0.80;99.90;;;;;;4861896;29;20609;-62
2021/12/03 08:04:51;;;;;;;8.07;5.53;;;-0.80;99.90;;;;;;4859943;29;20092;-59
2021/12/03 08:07:18;;;;;;;9.60;5.68;;;-0.70;99.90;;;;;;4861504;29;20049;-58
2021/12/03 08:09:45;;;;;;;10.15;5.57;;;-0.50;99.90;;;;;;4861558;29;20045;-59
2021/12/03 08:12:12;;;;;;;;;;;-0.40;99.90;;;;;;4863002;29;20056;-58
2021/12/03 08:14:38;;;;;;;8.38;6.10;;;-0.20;99.90;;;;;;4861647;29;19938;-59
2021/12/03 08:17:05;;;;;;;10.13;6.38;;;0.00;99.90;;;;;;4861173;29;20669;-58
2021/12/03 08:19:32;;;;;;;10.10;6.40;;;0.10;99.90;;;;;;4860700;29;20496;-59
2021/12/03 08:21:59;;;;;;;9.07;6.75;;;0.20;99.90;;;;;;4862565;29;20127;-58
2021/12/03 08:24:26;;;;;;;9.57;6.35;;;0.30;99.90;;;;;;4861882;29;20109;-58
2021/12/03 08:26:53;;;;;;;9.20;6.35;;;0.50;99.90;;;;;;4861518;29;20148;-58
2021/12/03 08:29:20;;;;;;;20.55;7.38;;;0.60;99.90;;;;;;4861906;29;20812;-58
2021/12/03 08:31:47;;;;;;;10.15;6.63;;;0.80;99.90;;;;;;4861264;29;20879;-58
2021/12/03 08:34:13;;;;;;;10.52;7.07;;;0.90;99.90;;;;;;4861995;29;20113;-57
2021/12/03 08:36:40;;;;;;;;;;;1.00;99.90;;;;;;4854137;29;20132;-59
2021/12/03 08:39:08;;;;;;;13.27;7.55;;;1.20;99.90;;;;;;4858372;29;20461;-59
2021/12/03 08:41:35;;;;;;;10.68;7.43;;;1.30;99.90;;;;;;4863187;29;20113;-59
2021/12/03 08:44:04;;;;;;;12.80;6.60;;;1.40;99.90;;;;;;4865569;29;20041;-71
2021/12/03 08:46:36;;;;;;;9.10;6.50;;;1.50;99.90;;;;;;4865609;29;20049;-59
2021/12/03 08:49:17;;;;;;;12.20;6.75;;;1.70;99.90;;;;;;4865452;29;20078;-58
2021/12/03 08:56:57;;;;;;;13.10;6.68;;;2.00;99.90;;;;;;4863863;29;20447;-56
2021/12/03 08:59:24;;;;;;;12.38;7.15;;;2.10;99.90;;;;;;4864937;29;20104;-57
2021/12/03 09:01:50;;;;;;;12.65;6.85;;;2.20;99.90;;;;;;4864781;29;20041;-58
2021/12/03 09:04:17;;;;;;;12.00;6.63;;;2.30;99.90;;;;;;4864689;29;20053;-57
2021/12/03 09:06:44;;;;;;;;;;;2.40;99.90;;;;;;4865341;29;20049;-58
2021/12/03 09:09:11;;;;;;;13.95;7.38;;;2.60;99.90;;;;;;4864267;29;20782;-66
2021/12/03 09:11:39;;;;;;;9.35;5.72;;;2.70;99.90;;;;;;4865015;29;20060;-59
2021/12/03 09:14:17;;;;;;;9.35;4.95;;;2.90;99.90;;;;;;4864600;29;20497;-59
2021/12/03 09:16:46;;;;;;;5.72;4.43;;;3.00;99.90;;;;;;4864668;29;20063;-59
2021/12/03 09:19:26;;;;;;;7.38;3.75;;;3.10;99.90;;;;;;4864124;29;20053;-59
2021/12/03 09:21:53;;;;;;;5.88;3.83;;;3.30;99.90;;;;;;4864824;29;20041;-59
2021/12/03 09:24:26;;;;;;;7.10;4.82;;;3.50;99.90;;;;;;4864595;29;20128;-59
2021/12/03 09:26:53;;;;;;;6.90;4.20;;;3.70;99.90;;;;;;4864769;29;20045;-59
2021/12/03 09:29:27;;;;;;;;;;;3.80;99.90;;;;;;4865229;29;20376;-59
2021/12/03 09:31:55;;;;;;;6.32;4.15;;;3.90;99.90;;;;;;4863526;29;19928;-60
2021/12/03 09:34:21;;;;;;;10.77;4.25;;;4.00;99.90;;;;;;4864664;29;20055;-58
2021/12/03 09:36:48;;;;;;;;;;;4.10;99.90;;;;;;4862756;29;20057;-58
2021/12/03 09:39:20;;;;;;;6.90;4.20;;;4.20;99.90;;;;;;4863873;29;19935;-58
2021/12/03 09:41:48;;;;;;;8.57;4.82;;;4.30;99.90;;;;;;4864239;29;20049;-59
2021/12/03 09:44:16;;;;;;;7.30;4.13;;;4.40;99.90;;;;;;4863495;29;20560;-59
2021/12/03 09:46:43;;;;;;;5.45;4.07;;;4.50;99.90;;;;;;4863864;29;20040;-63
2021/12/03 09:49:34;;;;;;;7.60;5.60;;;4.50;99.90;;;;;;4863789;29;20053;-58
2021/12/03 09:52:12;;;;;;;5.82;4.47;;;4.60;99.90;;;;;;4864364;29;20768;-59
2021/12/03 09:54:43;;;;;;;6.32;4.07;;;4.70;99.90;;;;;;4863786;29;20519;-58
2021/12/03 09:57:19;;;;;;;6.88;4.07;;;4.80;99.90;;;;;;4863891;29;20048;-58
2021/12/03 10:00:33;;;;;;;7.03;4.40;;;4.80;99.90;;;;;;4864148;29;20049;-55
2021/12/03 10:16:47;;;;;;;8.20;5.43;;;5.10;99.90;;;;;;4863684;29;20053;-57
2021/12/03 10:19:30;;;;;;;16.30;8.00;;;5.10;99.90;;;;;;4862460;29;20120;-58
2021/12/03 10:30:23;;;;;;;48.13;21.88;;;5.10;99.90;;;;;;4863255;29;20049;-57
2021/12/03 10:46:17;;;;;;;8.38;4.07;;;5.50;99.90;;;;;;4863076;29;20049;-49
2021/12/03 10:48:58;;;;;;;10.88;5.80;;;5.60;99.90;;;;;;4862445;29;20045;-55
2021/12/03 10:54:19;;;;;;;11.80;5.60;;;6.00;99.90;;;;;;4863304;29;20037;-55
2021/12/03 11:08:09;;;;;;;10.18;5.63;;;6.80;99.90;;;;;;4862249;29;20076;-55
2021/12/03 11:25:31;;;;;;;6.88;5.00;;;7.40;99.90;;;;;;4862509;29;20049;-54
2021/12/03 11:30:41;;;;;;;4.68;4.03;;;7.70;99.90;;;;;;4861932;29;20040;-54
2021/12/03 11:36:35;;;;;;;9.32;5.35;;;7.70;99.90;;;;;;4862543;29;20049;-54
2021/12/03 11:48:37;;;;;;;9.40;3.97;;;8.00;99.90;;;;;;4862464;29;20137;-54
2021/12/03 11:57:30;;;;;;;6.30;3.75;;;8.10;99.90;;;;;;4876103;29;20056;-55
2021/12/03 12:00:38;;;;;;;11.50;4.20;;;8.10;99.90;;;;;;4861529;29;20041;-55
2021/12/03 12:14:45;;;;;;;7.43;3.75;;;8.30;99.90;;;;;;4867337;29;20045;-55
2021/12/03 12:17:28;;;;;;;6.70;3.97;;;8.30;99.90;;;;;;4863759;29;20125;-55
2021/12/03 12:30:14;;;;;;;4.07;2.80;;;8.30;99.90;;;;;;4865808;29;20037;-60
2021/12/03 13:33:18;;;;;;;1.45;1.20;;;7.30;98.00;;;;;;4811499;29;20076;-57
2021/12/03 14:36:56;;;;;;;5.28;3.25;;;2.30;99.90;;;;;;4863189;29;20203;-55
2021/12/03 14:39:45;;;;;;;2.85;2.10;;;2.20;99.90;;;;;;4863256;29;20048;-54
2021/12/03 14:45:07;;;;;;;3.80;2.60;;;1.90;99.90;;;;;;4863083;29;20646;-55
2021/12/03 14:50:21;;;;;;;;;;;1.70;99.90;;;;;;4863935;29;20053;-55
2021/12/03 14:55:52;;;;;;;5.07;3.15;;;1.40;99.90;;;;;;4862050;29;20065;-55
2021/12/03 14:58:22;;;;;;;5.72;2.90;;;1.30;99.90;;;;;;4862576;29;20496;-54
2021/12/03 15:00:55;;;;;;;3.40;3.10;;;1.30;99.90;;;;;;4863240;29;20076;-54
2021/12/03 15:06:04;;;;;;;4.85;3.25;;;1.30;99.90;;;;;;4862424;29;20052;-54
2021/12/03 15:09:28;;;;;;;3.45;3.15;;;1.30;99.90;;;;;;4863308;29;20457;-54
2021/12/03 15:25:13;;;;;;;4.88;3.38;;;1.10;99.90;;;;;;4855000;29;20049;-54
2021/12/03 15:35:37;;;;;;;;;;;1.00;99.90;;;;;;4877122;29;20068;-55
2021/12/03 15:52:32;;;;;;;7.20;4.70;;;0.90;99.90;;;;;;4863946;29;20049;-66
2021/12/03 16:03:37;;;;;;;6.43;4.68;;;0.50;99.90;;;;;;4864673;29;20120;-64
2021/12/03 16:06:21;;;;;;;7.20;4.13;;;0.40;99.90;;;;;;4864926;29;20037;-66
2021/12/03 16:11:59;;;;;;;8.82;5.30;;;0.20;99.90;;;;;;4876211;29;20063;-66
2021/12/03 16:22:48;;;;;;;13.98;4.93;;;-0.10;99.90;;;;;;4863134;29;20045;-68
2021/12/03 16:25:30;;;;;;;8.63;5.57;;;-0.20;99.90;;;;;;4860412;29;20040;-66
2021/12/03 16:52:42;;;;;;;8.60;5.20;;;-0.90;99.90;;;;;;4843385;29;20070;-67
2021/12/03 16:55:13;;;;;;;7.93;5.53;;;-1.00;99.90;;;;;;4859279;29;20041;-67
2021/12/03 16:57:41;;;;;;;8.65;5.00;;;-1.00;99.90;;;;;;4863805;29;20277;-67
2021/12/03 17:00:25;;;;;;;9.52;5.50;;;-1.10;99.90;;;;;;4864137;29;20049;-67
2021/12/03 17:03:03;;;;;;;6.63;4.70;;;-1.10;99.90;;;;;;4865610;29;20291;-67
2021/12/03 17:08:38;;;;;;;8.70;5.38;;;-1.20;99.90;;;;;;4866094;29;20053;-68
2021/12/03 17:11:32;;;;;;;6.75;4.85;;;-1.20;99.90;;;;;;4862977;29;20558;-67
2021/12/03 17:49:02;;;;;;;8.90;5.90;;;-1.20;99.90;;;;;;4856049;29;20081;-66
2021/12/03 17:54:34;;;;;;;8.18;5.38;;;-1.20;99.90;;;;;;4864790;29;20057;-67
2021/12/03 17:57:10;;;;;;;9.07;4.22;;;-1.20;99.90;;;;;;4864690;29;20116;-67
2021/12/03 17:59:45;;;;;;;9.68;5.32;;;-1.20;99.90;;;;;;4863000;29;20063;-66
2021/12/03 18:55:49;;;;;;;6.78;3.55;;;-1.00;99.90;;;;;;4873834;29;20049;-67
2021/12/03 18:58:17;;;;;;;6.90;3.05;;;-1.00;99.90;;;;;;4876891;29;20128;-67
2021/12/03 19:00:45;;;;;;;6.43;3.40;;;-1.00;99.90;;;;;;4861993;29;20063;-68
2021/12/03 19:08:47;;;;;;;;;;;-1.00;99.90;;;;;;4863049;29;20440;-68
2021/12/03 19:14:07;;;;;;;4.80;2.80;;;-1.00;99.90;;;;;;4859811;29;20618;-71
2021/12/03 19:16:34;;;;;;;6.05;2.83;;;-1.00;99.90;;;;;;4860823;29;20339;-66
2021/12/03 19:19:04;;;;;;;5.68;3.45;;;-1.00;99.90;;;;;;4860079;29;20048;-67
2021/12/03 19:21:39;;;;;;;5.75;3.28;;;-1.00;99.90;;;;;;4873979;29;20109;-66
2021/12/03 19:24:08;;;;;;;5.65;3.35;;;-1.00;99.90;;;;;;4862312;29;20176;-68
2021/12/03 19:26:42;;;;;;;11.15;3.75;;;-1.00;99.90;;;;;;4862599;29;20052;-69
2021/12/03 19:29:11;;;;;;;7.30;3.17;;;-1.00;99.90;;;;;;4862434;29;20040;-68
2021/12/03 19:31:39;;;;;;;5.80;2.97;;;-1.10;99.90;;;;;;4877519;29;20032;-66
2021/12/03 19:34:07;;;;;;;6.20;2.83;;;-1.10;99.90;;;;;;4863179;29;20049;-67
2021/12/03 19:36:39;;;;;;;5.57;3.15;;;-1.10;99.90;;;;;;4860347;29;20048;-66
2021/12/03 19:39:08;;;;;;;5.80;3.20;;;-1.10;99.90;;;;;;4860462;29;20049;-67
2021/12/03 19:41:45;;;;;;;5.57;2.95;;;-1.00;99.90;;;;;;4861958;29;20566;-66
2021/12/03 19:44:16;;;;;;;;;;;-1.00;99.90;;;;;;4861217;29;20041;-66
2021/12/03 19:46:46;;;;;;;5.47;4.00;;;-1.00;99.90;;;;;;4860879;29;20459;-68
2021/12/03 19:51:58;;;;;;;5.13;3.17;;;-1.00;99.90;;;;;;4861691;29;20097;-67
2021/12/03 19:54:26;;;;;;;5.68;3.40;;;-1.00;99.90;;;;;;4862485;29;20053;-66
2021/12/03 19:56:55;;;;;;;7.88;3.60;;;-1.00;99.90;;;;;;4861252;29;21584;-65
2021/12/03 19:59:22;;;;;;;7.25;4.43;;;-1.00;99.90;;;;;;4862092;29;20540;-67
2021/12/03 20:01:49;;;;;;;8.18;4.43;;;-1.00;99.90;;;;;;4875928;29;20093;-65
2021/12/03 20:04:16;;;;;;;7.10;3.65;;;-1.00;99.90;;;;;;4861736;29;20539;-65
2021/12/03 20:06:44;;;;;;;;;;;-1.00;99.90;;;;;;4859903;29;20045;-64
2021/12/03 20:09:17;;;;;;;9.07;4.07;;;-1.00;99.90;;;;;;4861636;29;20482;-66
2021/12/03 20:11:48;;;;;;;5.43;3.47;;;-1.00;99.90;;;;;;4862058;29;20044;-66
2021/12/03 20:14:17;;;;;;;9.85;4.05;;;-1.00;99.90;;;;;;4861664;29;20497;-66
2021/12/03 20:17:05;;;;;;;5.15;3.45;;;-1.00;99.90;;;;;;4861740;29;20059;-66
2021/12/03 20:19:38;;;;;;;7.75;4.00;;;-1.00;99.90;;;;;;4858773;29;20515;-66